createdAt,value
2022-08-05T00:00:26.744Z,27.10
2022-08-05T00:02:56.577Z,27.10
2022-08-05T00:06:06.681Z,27.00
2022-08-05T00:08:32.881Z,27.00
2022-08-05T00:11:07.607Z,27.00
2022-08-05T00:13:52.925Z,26.90
2022-08-05T00:16:36.264Z,26.80
2022-08-05T00:19:10.421Z,26.80
2022-08-05T00:21:38.392Z,26.80
2022-08-05T00:24:16.181Z,26.80
2022-08-05T00:26:50.841Z,26.80
2022-08-05T00:29:25.813Z,26.80
2022-08-05T00:32:13.217Z,26.80
2022-08-05T00:35:04.582Z,26.80
2022-08-05T00:37:51.176Z,26.70
2022-08-05T00:40:27.268Z,26.70
2022-08-05T00:42:57.015Z,26.60
2022-08-05T00:45:37.876Z,26.70
2022-08-05T00:48:10.082Z,26.60
2022-08-05T00:50:38.405Z,26.60
2022-08-05T00:53:09.941Z,26.60
2022-08-05T00:55:54.824Z,26.60
2022-08-05T00:58:27.516Z,26.60
2022-08-05T01:00:55.744Z,26.60
2022-08-05T01:03:30.866Z,26.60
2022-08-05T01:06:01.522Z,26.50
2022-08-05T01:08:43.161Z,26.40
2022-08-05T01:11:24.459Z,26.30
2022-08-05T01:14:09.024Z,26.30
2022-08-05T01:16:41.389Z,26.20
2022-08-05T01:19:36.735Z,26.10
2022-08-05T01:22:31.854Z,26.10
2022-08-05T01:25:13.614Z,26.10
2022-08-05T01:27:56.231Z,26.00
2022-08-05T01:30:34.811Z,26.00
2022-08-05T01:33:04.717Z,26.00
2022-08-05T01:35:52.171Z,26.10
2022-08-05T01:38:27.319Z,26.00
2022-08-05T01:40:59.762Z,26.00
2022-08-05T01:43:30.836Z,26.00
2022-08-05T01:46:07.212Z,26.00
2022-08-05T01:58:10.215Z,25.80
2022-08-05T01:59:31.162Z,25.70
2022-08-05T02:06:33.443Z,25.40
2022-08-05T02:09:25.055Z,25.40
2022-08-05T02:12:18.129Z,25.40
2022-08-05T02:15:04.033Z,25.40
2022-08-05T02:18:27.584Z,25.30
2022-08-05T02:20:26.319Z,25.20
2022-08-05T02:22:57.034Z,25.00
2022-08-05T02:25:26.501Z,24.80
2022-08-05T02:28:08.875Z,24.60
2022-08-05T02:30:51.498Z,24.60
2022-08-05T02:33:24.451Z,24.50
2022-08-05T02:36:04.536Z,24.40
2022-08-05T02:38:35.339Z,24.30
2022-08-05T02:41:17.420Z,24.20
2022-08-05T02:44:02.616Z,24.10
2022-08-05T02:46:34.949Z,23.90
2022-08-05T02:49:06.021Z,23.90
2022-08-05T02:52:02.985Z,23.90
2022-08-05T02:54:36.465Z,23.80
2022-08-05T02:57:10.476Z,23.90
2022-08-05T02:59:55.219Z,23.80
2022-08-05T03:02:27.451Z,23.80
2022-08-05T03:04:58.736Z,23.90
2022-08-05T03:07:59.359Z,23.90
2022-08-05T03:10:22.102Z,23.90
2022-08-05T03:12:53.677Z,24.00
2022-08-05T03:15:23.772Z,24.00
2022-08-05T03:17:55.886Z,24.00
2022-08-05T03:20:30.308Z,24.10
2022-08-05T03:23:02.740Z,24.00
2022-08-05T03:26:04.281Z,24.10
2022-08-05T03:28:22.742Z,24.10
2022-08-05T03:30:51.056Z,24.10
2022-08-05T03:33:23.197Z,24.20
2022-08-05T03:36:02.391Z,24.30
2022-08-05T03:38:37.353Z,24.40
2022-08-05T03:41:10.984Z,24.40
2022-08-05T03:44:08.369Z,24.50
2022-08-05T03:46:29.971Z,24.40
2022-08-05T03:49:01.747Z,24.40
2022-08-05T03:52:38.873Z,24.40
2022-08-05T03:55:52.149Z,24.40
2022-08-05T03:57:16.574Z,24.40
2022-08-05T04:00:05.479Z,24.30
2022-08-05T04:02:37.506Z,24.30
2022-08-05T04:05:09.717Z,24.20
2022-08-05T04:07:58.531Z,24.20
2022-08-05T04:10:30.859Z,24.20
2022-08-05T04:13:04.187Z,24.10
2022-08-05T04:15:32.975Z,24.20
2022-08-05T04:18:07.402Z,24.20
2022-08-05T04:20:38.384Z,24.20
2022-08-05T04:23:12.453Z,24.20
2022-08-05T04:26:00.329Z,24.20
2022-08-05T04:28:30.840Z,24.20
2022-08-05T04:31:01.055Z,24.20
2022-08-05T04:33:54.427Z,24.20
2022-08-05T04:36:45.259Z,24.30
2022-08-05T04:39:07.008Z,24.30
2022-08-05T04:41:37.286Z,24.40
2022-08-05T04:44:08.883Z,24.40
2022-08-05T04:46:40.006Z,24.50
2022-08-05T04:49:14.493Z,24.60
2022-08-05T04:51:43.656Z,24.60
2022-08-05T04:54:14.810Z,24.70
2022-08-05T04:56:43.565Z,24.70
2022-08-05T04:59:21.996Z,24.70
2022-08-05T05:02:07.569Z,24.70
2022-08-05T05:04:49.863Z,24.60
2022-08-05T05:07:18.621Z,24.50
2022-08-05T05:09:58.540Z,24.50
2022-08-05T05:12:27.536Z,24.50
2022-08-05T05:14:55.977Z,24.50
2022-08-05T05:17:55.488Z,24.60
2022-08-05T05:20:17.493Z,24.70
2022-08-05T05:22:48.306Z,24.70
2022-08-05T05:25:17.746Z,24.80
2022-08-05T05:31:35.978Z,24.90
2022-08-05T06:06:18.478Z,25.10
2022-08-05T06:36:19.602Z,25.70
2022-08-05T06:50:00.058Z,25.80
2022-08-05T06:52:58.446Z,25.70
2022-08-05T06:55:28.239Z,25.70
2022-08-05T06:58:19.786Z,25.50
2022-08-05T07:00:52.292Z,25.40
2022-08-05T07:03:20.267Z,25.40
2022-08-05T07:05:55.964Z,25.30
2022-08-05T07:08:25.197Z,25.30
2022-08-05T07:10:57.835Z,25.30
2022-08-05T07:13:58.226Z,25.30
2022-08-05T07:17:59.948Z,25.40
2022-08-05T07:20:31.481Z,25.40
2022-08-05T07:22:29.078Z,25.50
2022-08-05T07:24:58.888Z,25.60
2022-08-05T07:28:02.321Z,25.80
2022-08-05T07:30:24.160Z,26.00
2022-08-05T07:32:56.340Z,26.00
2022-08-05T07:36:03.458Z,26.10
2022-08-05T07:38:32.942Z,26.20
2022-08-05T07:41:16.621Z,26.50
2022-08-05T07:43:50.995Z,26.70
2022-08-05T07:46:25.412Z,26.80
2022-08-05T07:49:02.945Z,26.80
2022-08-05T07:51:40.577Z,26.90
2022-08-05T07:54:16.853Z,26.90
2022-08-05T07:57:02.021Z,26.90
2022-08-05T07:59:40.305Z,26.90
2022-08-05T08:02:15.502Z,27.00
2022-08-05T08:04:46.416Z,27.00
2022-08-05T08:07:15.404Z,27.00
2022-08-05T08:09:45.346Z,27.10
2022-08-05T08:12:35.036Z,27.20
2022-08-05T08:15:15.717Z,27.40
2022-08-05T08:17:49.694Z,27.50
2022-08-05T08:20:44.466Z,27.60
2022-08-05T08:24:00.298Z,27.90
2022-08-05T08:26:00.952Z,28.50
2022-08-05T08:28:35.791Z,28.70
2022-08-05T08:31:07.322Z,29.10
2022-08-05T08:33:38.091Z,29.20
2022-08-05T08:36:38.670Z,29.20
2022-08-05T08:38:56.981Z,29.20
2022-08-05T08:41:51.134Z,29.20
2022-08-05T08:45:16.608Z,29.30
2022-08-05T08:47:46.853Z,29.50
2022-08-05T08:50:06.011Z,29.60
2022-08-05T08:52:51.721Z,29.60
2022-08-05T08:56:02.773Z,29.90
2022-08-05T08:58:10.025Z,30.20
2022-08-05T09:00:41.312Z,30.40
2022-08-05T09:03:16.167Z,30.60
2022-08-05T09:06:08.556Z,30.80
2022-08-05T09:08:40.043Z,30.70
2022-08-05T09:11:08.700Z,30.30
2022-08-05T09:14:09.461Z,29.80
2022-08-05T09:16:28.249Z,29.40
2022-08-05T09:18:59.431Z,29.10
2022-08-05T09:22:22.593Z,28.80
2022-08-05T09:24:16.371Z,28.60
2022-08-05T09:26:48.592Z,28.40
2022-08-05T09:29:19.964Z,28.50
2022-08-05T09:32:41.065Z,28.60
2022-08-05T09:34:52.710Z,28.70
2022-08-05T09:38:17.471Z,28.90
2022-08-05T09:40:09.869Z,29.30
2022-08-05T09:42:42.246Z,29.60
2022-08-05T09:45:17.420Z,30.00
2022-08-05T09:48:19.916Z,30.30
2022-08-05T09:50:54.197Z,30.40
2022-08-05T09:53:53.225Z,30.60
2022-08-05T09:56:13.607Z,30.70
2022-08-05T09:58:42.173Z,30.70
2022-08-05T10:01:15.062Z,30.60
2022-08-05T10:03:59.139Z,30.40
2022-08-05T10:06:29.178Z,30.50
2022-08-05T10:09:24.945Z,30.70
2022-08-05T10:11:56.923Z,30.90
2022-08-05T10:14:27.455Z,31.10
2022-08-05T10:16:58.882Z,31.40
2022-08-05T10:19:31.894Z,31.50
2022-08-05T10:22:29.549Z,31.20
2022-08-05T10:24:58.346Z,30.70
2022-08-05T10:28:09.255Z,30.60
2022-08-05T10:31:19.912Z,30.50
2022-08-05T10:33:03.500Z,30.40
2022-08-05T10:35:33.806Z,30.40
2022-08-05T10:38:11.928Z,30.60
2022-08-05T10:40:44.927Z,30.80
2022-08-05T10:43:16.726Z,31.10
2022-08-05T10:46:08.964Z,31.20
2022-08-05T10:48:52.782Z,31.50
2022-08-05T10:51:28.571Z,31.90
2022-08-05T10:54:23.093Z,32.00
2022-08-05T10:56:53.458Z,31.90
2022-08-05T11:00:03.327Z,31.60
2022-08-05T11:02:37.490Z,31.60
2022-08-05T11:05:08.325Z,31.60
2022-08-05T11:08:17.107Z,31.60
2022-08-05T11:11:00.976Z,31.70
2022-08-05T11:13:58.056Z,31.70
2022-08-05T11:16:33.688Z,31.70
2022-08-05T11:20:10.501Z,31.60
2022-08-05T11:22:34.338Z,31.60
2022-08-05T11:26:04.383Z,31.60
2022-08-05T11:28:30.470Z,31.80
2022-08-05T11:31:54.172Z,31.80
2022-08-05T11:34:22.500Z,31.90
2022-08-05T11:37:06.194Z,31.90
2022-08-05T11:40:03.171Z,31.90
2022-08-05T11:42:40.133Z,31.90
2022-08-05T11:45:26.817Z,32.00
2022-08-05T11:47:58.646Z,32.10
2022-08-05T11:50:26.829Z,32.10
2022-08-05T11:52:57.884Z,32.20
2022-08-05T11:55:31.606Z,32.40
2022-08-05T11:58:09.556Z,32.50
2022-08-05T12:00:41.417Z,32.40
2022-08-05T12:03:29.328Z,32.30
2022-08-05T12:06:02.153Z,32.00
2022-08-05T12:08:32.788Z,31.70
2022-08-05T12:11:04.105Z,31.30
2022-08-05T12:13:48.872Z,30.90
2022-08-05T12:16:25.315Z,30.40
2022-08-05T12:18:55.418Z,29.90
2022-08-05T12:21:31.837Z,29.70
2022-08-05T12:24:04.381Z,29.40
2022-08-05T12:26:33.636Z,29.20
2022-08-05T12:29:03.327Z,29.20
2022-08-05T12:31:45.884Z,29.20
2022-08-05T12:34:23.738Z,29.10
2022-08-05T12:36:54.466Z,28.80
2022-08-05T12:39:23.700Z,28.70
2022-08-05T12:41:58.976Z,28.60
2022-08-05T12:44:33.169Z,28.30
2022-08-05T12:47:02.246Z,28.20
2022-08-05T12:50:02.312Z,27.90
2022-08-05T12:52:38.502Z,27.60
2022-08-05T12:55:22.345Z,27.20
2022-08-05T12:58:49.373Z,27.00
2022-08-05T13:02:03.861Z,26.70
2022-08-05T13:03:33.008Z,26.40
2022-08-05T13:06:02.775Z,26.00
2022-08-05T13:08:32.300Z,25.70
2022-08-05T13:11:02.141Z,25.20
2022-08-05T13:14:05.024Z,24.80
2022-08-05T13:16:20.310Z,24.40
2022-08-05T13:18:52.137Z,24.20
2022-08-05T13:21:27.998Z,24.10
2022-08-05T13:24:06.251Z,24.00
2022-08-05T13:26:37.016Z,24.00
2022-08-05T13:29:05.513Z,23.80
2022-08-05T13:32:04.267Z,23.60
2022-08-05T13:34:27.714Z,23.60
2022-08-05T13:37:00.603Z,23.60
2022-08-05T13:40:16.297Z,23.70
2022-08-05T13:42:17.368Z,23.80
2022-08-05T13:44:46.939Z,23.60
2022-08-05T13:47:35.258Z,23.50
2022-08-05T13:50:04.706Z,23.30
2022-08-05T13:52:35.960Z,23.20
2022-08-05T13:55:07.853Z,23.20
2022-08-05T13:57:51.031Z,23.10
2022-08-05T14:00:26.975Z,23.10
2022-08-05T14:02:57.331Z,23.10
2022-08-05T14:05:48.188Z,23.10
2022-08-05T14:08:20.763Z,23.20
2022-08-05T14:11:08.115Z,23.10
2022-08-05T14:13:54.768Z,23.00
2022-08-05T14:16:28.160Z,22.90
2022-08-05T14:18:56.240Z,22.90
2022-08-05T14:22:09.005Z,22.90
2022-08-05T14:24:19.416Z,23.00
2022-08-05T14:27:15.597Z,23.00
2022-08-05T14:29:40.524Z,23.20
2022-08-05T14:32:15.901Z,23.40
2022-08-05T14:34:54.792Z,23.40
2022-08-05T14:37:42.197Z,23.50
2022-08-05T14:40:17.135Z,23.50
2022-08-05T14:42:46.840Z,23.40
2022-08-05T14:45:16.891Z,23.40
2022-08-05T14:48:04.146Z,23.50
2022-08-05T14:50:36.066Z,23.50
2022-08-05T14:53:08.814Z,23.60
2022-08-05T14:55:39.834Z,23.80
2022-08-05T14:58:11.041Z,23.80
2022-08-05T15:00:59.360Z,23.80
2022-08-05T15:03:33.857Z,23.80
2022-08-05T15:06:14.806Z,23.70
2022-08-05T15:08:59.673Z,23.60
2022-08-05T15:11:51.731Z,23.60
2022-08-05T15:14:35.017Z,23.60
2022-08-05T15:17:09.885Z,23.60
2022-08-05T15:19:57.226Z,23.60
2022-08-05T15:22:27.162Z,23.60
2022-08-05T15:24:55.965Z,23.70
2022-08-05T15:27:25.961Z,23.80
2022-08-05T15:29:56.754Z,23.80
2022-08-05T15:32:27.473Z,23.90
2022-08-05T15:34:58.010Z,24.00
2022-08-05T15:38:33.345Z,24.00
2022-08-05T15:40:58.490Z,24.00
2022-08-05T15:43:10.812Z,24.00
2022-08-05T15:46:00.584Z,24.00
2022-08-05T15:48:29.962Z,24.00
2022-08-05T15:51:03.639Z,24.00
2022-08-05T15:53:51.312Z,24.00
2022-08-05T15:56:20.175Z,24.10
2022-08-05T15:58:49.872Z,24.30
2022-08-05T16:01:30.039Z,24.30
2022-08-05T16:04:10.400Z,24.40
2022-08-05T16:06:41.445Z,24.70
2022-08-05T16:09:11.517Z,25.00
2022-08-05T16:11:43.646Z,25.10
2022-08-05T16:14:17.117Z,25.20
2022-08-05T16:16:46.135Z,25.30
2022-08-05T16:19:25.382Z,25.30
2022-08-05T16:22:34.980Z,25.20
2022-08-05T16:29:50.013Z,25.20
2022-08-05T16:40:06.409Z,25.10
2022-08-05T16:42:30.192Z,24.90
2022-08-05T16:44:58.605Z,24.90
2022-08-05T16:47:35.759Z,24.90
2022-08-05T16:50:06.319Z,25.00
2022-08-05T16:52:34.367Z,25.10
2022-08-05T16:55:04.345Z,25.00
2022-08-05T16:57:53.601Z,24.80
2022-08-05T17:00:25.775Z,24.80
2022-08-05T17:03:03.552Z,24.70
2022-08-05T17:05:33.750Z,24.60
2022-08-05T17:08:05.987Z,24.50
2022-08-05T17:10:37.347Z,24.40
2022-08-05T17:13:05.865Z,24.40
2022-08-05T17:15:49.013Z,24.40
2022-08-05T17:18:21.167Z,24.30
2022-08-05T17:20:49.300Z,24.30
2022-08-05T17:24:03.155Z,24.40
2022-08-05T17:26:07.192Z,24.40
2022-08-05T17:28:36.822Z,24.50
2022-08-05T17:31:08.380Z,24.50
2022-08-05T17:33:52.348Z,24.50
2022-08-05T17:36:33.722Z,24.50
2022-08-05T17:39:06.516Z,24.50
2022-08-05T17:42:17.809Z,24.40
2022-08-05T17:44:42.283Z,24.40
2022-08-05T17:47:22.255Z,24.40
2022-08-05T17:49:52.039Z,24.50
2022-08-05T17:52:53.196Z,24.50
2022-08-05T17:55:27.192Z,24.40
2022-08-05T17:58:09.276Z,24.40
2022-08-05T18:00:45.157Z,24.40
2022-08-05T18:03:39.237Z,24.40
2022-08-05T18:06:11.029Z,24.40
2022-08-05T18:08:44.789Z,24.40
2022-08-05T18:11:24.349Z,24.40
2022-08-05T18:14:04.504Z,24.30
2022-08-05T18:16:34.889Z,24.30
2022-08-05T18:19:03.367Z,24.20
2022-08-05T18:22:09.438Z,24.10
2022-08-05T18:24:19.726Z,23.90
2022-08-05T18:26:49.236Z,23.80
2022-08-05T18:29:40.493Z,23.60
2022-08-05T18:32:12.652Z,23.50
2022-08-05T18:34:41.505Z,23.40
2022-08-05T18:37:12.646Z,23.30
2022-08-05T18:40:31.096Z,23.20
2022-08-05T18:42:51.999Z,23.10
2022-08-05T18:45:21.772Z,23.00
2022-08-05T18:47:56.662Z,23.00
2022-08-05T18:50:46.380Z,22.90
2022-08-05T18:53:20.537Z,22.90
2022-08-05T18:55:50.947Z,22.80
2022-08-05T18:58:22.166Z,22.70
2022-08-05T19:00:58.145Z,22.70
2022-08-05T19:03:55.718Z,22.60
2022-08-05T19:06:21.710Z,22.50
2022-08-05T19:08:50.609Z,22.50
2022-08-05T19:11:21.938Z,22.50
2022-08-05T19:14:01.825Z,22.40
2022-08-05T19:16:51.625Z,22.40
2022-08-05T19:19:29.771Z,22.40
2022-08-05T19:21:58.720Z,22.40
2022-08-05T19:24:34.357Z,22.30
2022-08-05T19:27:03.935Z,22.30
2022-08-05T19:29:36.263Z,22.20
2022-08-05T19:32:08.579Z,22.20
2022-08-05T19:34:39.789Z,22.10
2022-08-05T19:37:10.156Z,22.10
2022-08-05T19:39:45.500Z,22.10
2022-08-05T19:42:19.648Z,22.00
2022-08-05T19:45:07.817Z,22.00
2022-08-05T19:47:37.976Z,21.90
2022-08-05T19:50:07.847Z,21.90
2022-08-05T19:52:43.162Z,21.80
2022-08-05T19:56:14.452Z,21.80
2022-08-05T19:58:14.386Z,21.70
2022-08-05T20:00:51.992Z,21.70
2022-08-05T20:03:21.916Z,21.60
2022-08-05T20:05:51.681Z,21.60
2022-08-05T20:08:20.252Z,21.50
2022-08-05T20:10:49.567Z,21.50
2022-08-05T20:13:18.161Z,21.40
2022-08-05T20:15:59.675Z,21.30
2022-08-05T20:18:32.861Z,21.30
2022-08-05T20:21:04.700Z,21.30
2022-08-05T20:23:39.525Z,21.20
2022-08-05T20:26:18.159Z,21.10
2022-08-05T20:28:56.920Z,21.00
2022-08-05T20:31:36.785Z,21.00
2022-08-05T20:34:15.214Z,20.80
2022-08-05T20:36:43.823Z,20.80
2022-08-05T20:39:13.350Z,20.70
2022-08-05T20:41:44.347Z,20.60
2022-08-05T20:44:19.161Z,20.50
2022-08-05T20:46:58.326Z,20.40
2022-08-05T20:49:27.726Z,20.40
2022-08-05T20:51:57.507Z,20.20
2022-08-05T20:54:59.028Z,20.20
2022-08-05T20:57:15.097Z,20.10
2022-08-05T21:00:21.224Z,20.00
2022-08-05T21:02:57.124Z,19.90
2022-08-05T21:05:28.558Z,19.70
2022-08-05T21:08:15.551Z,19.60
2022-08-05T21:10:48.995Z,19.60
2022-08-05T21:13:26.211Z,19.50
2022-08-05T21:16:05.643Z,19.60
2022-08-05T21:18:34.080Z,19.50
2022-08-05T21:21:09.838Z,19.50
2022-08-05T21:23:40.114Z,19.50
2022-08-05T21:26:14.325Z,19.50
2022-08-05T21:28:50.611Z,19.50
2022-08-05T21:31:19.225Z,19.50
2022-08-05T21:33:49.570Z,19.50
2022-08-05T21:36:29.845Z,19.50
2022-08-05T21:38:58.518Z,19.50
2022-08-05T21:41:32.904Z,19.50
2022-08-05T21:44:04.373Z,19.50
2022-08-05T21:46:34.660Z,19.50
2022-08-05T21:49:04.659Z,19.50
2022-08-05T21:52:15.688Z,19.50
2022-08-05T21:54:30.792Z,19.50
2022-08-05T22:00:03.984Z,19.40
2022-08-05T22:02:34.607Z,19.20
2022-08-05T22:05:04.384Z,19.10
2022-08-05T22:07:40.490Z,19.10
2022-08-05T22:10:26.643Z,19.00
2022-08-05T22:12:55.468Z,18.90
2022-08-05T22:16:00.341Z,18.80
2022-08-05T22:18:14.480Z,18.80
2022-08-05T22:20:44.187Z,18.70
2022-08-05T22:24:02.056Z,18.60
2022-08-05T22:26:36.941Z,18.60
2022-08-05T22:29:05.076Z,18.40
2022-08-05T22:31:44.532Z,18.30
2022-08-05T22:34:25.564Z,18.20
2022-08-05T22:36:58.463Z,18.10
2022-08-05T22:39:33.375Z,18.10
2022-08-05T22:42:09.279Z,18.20
2022-08-05T22:44:40.101Z,18.20
2022-08-05T22:47:08.175Z,18.10
2022-08-05T22:50:17.972Z,18.20
2022-08-05T22:52:32.550Z,18.10
2022-08-05T22:55:04.240Z,18.10
2022-08-05T22:57:49.440Z,18.00
2022-08-05T23:00:21.203Z,17.90
2022-08-05T23:02:49.659Z,17.80
2022-08-05T23:05:18.640Z,17.70
2022-08-05T23:07:49.523Z,17.60
2022-08-05T23:10:23.580Z,17.60
2022-08-05T23:12:54.654Z,17.60
2022-08-05T23:15:26.970Z,17.50
2022-08-05T23:18:00.485Z,17.50
2022-08-05T23:20:30.950Z,17.60
2022-08-05T23:22:59.044Z,17.50
2022-08-05T23:25:55.006Z,17.50
2022-08-05T23:28:18.207Z,17.40
2022-08-05T23:30:53.298Z,17.30
2022-08-05T23:33:26.515Z,17.30
2022-08-05T23:36:10.495Z,17.30
2022-08-05T23:38:39.989Z,17.30
2022-08-05T23:41:11.514Z,17.30
2022-08-05T23:44:06.297Z,17.20
2022-08-05T23:46:30.004Z,17.20
2022-08-05T23:49:00.895Z,17.20
2022-08-05T23:51:48.399Z,17.20
2022-08-05T23:54:25.992Z,17.20
2022-08-05T23:57:03.315Z,17.20
